sensor_id;sensor_type;location;lat;lon;timestamp;P1;durP1;ratioP1;P2;durP2;ratioP2
43540;SDS011;29549;40.386;-3.710;2022-10-19T00:04:43;20.10;;;7.00;;
43540;SDS011;29549;40.386;-3.710;2022-10-19T00:14:44;23.65;;;6.53;;
43540;SDS011;29549;40.386;-3.710;2022-10-19T00:24:47;17.63;;;6.97;;
43540;SDS011;29549;40.386;-3.710;2022-10-19T00:34:49;19.05;;;6.30;;
43540;SDS011;29549;40.386;-3.710;2022-10-19T00:54:52;20.13;;;6.60;;
43540;SDS011;29549;40.386;-3.710;2022-10-19T01:04:56;16.40;;;5.82;;
43540;SDS011;29549;40.386;-3.710;2022-10-19T01:25:33;17.58;;;6.30;;
43540;SDS011;29549;40.386;-3.710;2022-10-19T01:36:01;19.25;;;7.07;;
43540;SDS011;29549;40.386;-3.710;2022-10-19T01:46:59;21.65;;;5.75;;
43540;SDS011;29549;40.386;-3.710;2022-10-19T01:56:44;16.60;;;5.63;;
43540;SDS011;29549;40.386;-3.710;2022-10-19T02:06:51;14.73;;;5.18;;
43540;SDS011;29549;40.386;-3.710;2022-10-19T02:17:00;18.20;;;5.28;;
43540;SDS011;29549;40.386;-3.710;2022-10-19T02:27:10;17.25;;;5.38;;
43540;SDS011;29549;40.386;-3.710;2022-10-19T02:37:13;20.17;;;6.07;;
43540;SDS011;29549;40.386;-3.710;2022-10-19T02:47:25;17.98;;;5.57;;
43540;SDS011;29549;40.386;-3.710;2022-10-19T02:57:31;16.08;;;5.93;;
43540;SDS011;29549;40.386;-3.710;2022-10-19T03:07:37;18.55;;;6.00;;
43540;SDS011;29549;40.386;-3.710;2022-10-19T03:17:39;17.95;;;5.25;;
43540;SDS011;29549;40.386;-3.710;2022-10-19T03:27:41;18.10;;;5.40;;
43540;SDS011;29549;40.386;-3.710;2022-10-19T03:37:43;15.90;;;5.47;;
43540;SDS011;29549;40.386;-3.710;2022-10-19T03:47:48;17.92;;;5.28;;
43540;SDS011;29549;40.386;-3.710;2022-10-19T03:57:51;23.95;;;5.88;;
43540;SDS011;29549;40.386;-3.710;2022-10-19T04:07:53;19.05;;;6.43;;
43540;SDS011;29549;40.386;-3.710;2022-10-19T04:17:55;18.63;;;5.93;;
43540;SDS011;29549;40.386;-3.710;2022-10-19T04:27:57;19.00;;;6.22;;
43540;SDS011;29549;40.386;-3.710;2022-10-19T04:38:00;21.38;;;6.15;;
43540;SDS011;29549;40.386;-3.710;2022-10-19T04:48:02;19.58;;;5.60;;
43540;SDS011;29549;40.386;-3.710;2022-10-19T04:58:05;23.83;;;6.63;;
43540;SDS011;29549;40.386;-3.710;2022-10-19T05:08:07;28.08;;;7.47;;
43540;SDS011;29549;40.386;-3.710;2022-10-19T05:18:09;26.55;;;7.03;;
43540;SDS011;29549;40.386;-3.710;2022-10-19T05:28:11;19.10;;;6.03;;
43540;SDS011;29549;40.386;-3.710;2022-10-19T05:38:14;19.33;;;6.43;;
43540;SDS011;29549;40.386;-3.710;2022-10-19T05:48:15;16.02;;;5.65;;
43540;SDS011;29549;40.386;-3.710;2022-10-19T05:58:17;17.45;;;6.22;;
43540;SDS011;29549;40.386;-3.710;2022-10-19T06:08:20;25.10;;;6.55;;
43540;SDS011;29549;40.386;-3.710;2022-10-19T06:18:23;21.70;;;6.03;;
43540;SDS011;29549;40.386;-3.710;2022-10-19T06:28:25;22.15;;;6.32;;
43540;SDS011;29549;40.386;-3.710;2022-10-19T06:38:27;21.42;;;6.53;;
43540;SDS011;29549;40.386;-3.710;2022-10-19T06:48:29;26.58;;;7.97;;
43540;SDS011;29549;40.386;-3.710;2022-10-19T06:58:36;20.30;;;7.83;;
43540;SDS011;29549;40.386;-3.710;2022-10-19T07:08:39;36.78;;;13.73;;
43540;SDS011;29549;40.386;-3.710;2022-10-19T07:18:42;33.37;;;10.47;;
43540;SDS011;29549;40.386;-3.710;2022-10-19T07:28:45;32.60;;;13.37;;
43540;SDS011;29549;40.386;-3.710;2022-10-19T07:38:51;21.48;;;9.02;;
43540;SDS011;29549;40.386;-3.710;2022-10-19T07:48:53;37.90;;;13.15;;
43540;SDS011;29549;40.386;-3.710;2022-10-19T07:58:56;36.45;;;9.75;;
43540;SDS011;29549;40.386;-3.710;2022-10-19T08:08:59;29.23;;;9.77;;
43540;SDS011;29549;40.386;-3.710;2022-10-19T08:19:02;32.38;;;8.32;;
43540;SDS011;29549;40.386;-3.710;2022-10-19T08:29:12;25.30;;;8.40;;
43540;SDS011;29549;40.386;-3.710;2022-10-19T08:39:15;26.70;;;7.88;;
43540;SDS011;29549;40.386;-3.710;2022-10-19T08:49:19;34.67;;;9.63;;
43540;SDS011;29549;40.386;-3.710;2022-10-19T08:59:33;33.58;;;8.23;;
43540;SDS011;29549;40.386;-3.710;2022-10-19T09:09:44;27.17;;;7.38;;
43540;SDS011;29549;40.386;-3.710;2022-10-19T09:19:51;26.13;;;7.03;;
43540;SDS011;29549;40.386;-3.710;2022-10-19T09:29:57;40.47;;;8.07;;
43540;SDS011;29549;40.386;-3.710;2022-10-19T09:40:04;25.40;;;7.88;;
43540;SDS011;29549;40.386;-3.710;2022-10-19T09:50:25;23.77;;;6.07;;
43540;SDS011;29549;40.386;-3.710;2022-10-19T10:00:37;63.63;;;27.13;;
43540;SDS011;29549;40.386;-3.710;2022-10-19T10:10:47;24.65;;;8.40;;
43540;SDS011;29549;40.386;-3.710;2022-10-19T10:21:19;32.25;;;7.70;;
43540;SDS011;29549;40.386;-3.710;2022-10-19T10:31:28;25.08;;;6.57;;
43540;SDS011;29549;40.386;-3.710;2022-10-19T10:41:35;22.33;;;7.03;;
43540;SDS011;29549;40.386;-3.710;2022-10-19T10:51:42;25.05;;;7.43;;
43540;SDS011;29549;40.386;-3.710;2022-10-19T11:01:55;17.30;;;5.57;;
43540;SDS011;29549;40.386;-3.710;2022-10-19T11:12:08;18.65;;;6.25;;
43540;SDS011;29549;40.386;-3.710;2022-10-19T11:43:11;19.48;;;5.40;;
43540;SDS011;29549;40.386;-3.710;2022-10-19T12:14:40;22.63;;;6.90;;
43540;SDS011;29549;40.386;-3.710;2022-10-19T12:24:47;20.20;;;6.82;;
43540;SDS011;29549;40.386;-3.710;2022-10-19T12:34:54;21.85;;;6.20;;
43540;SDS011;29549;40.386;-3.710;2022-10-19T12:55:25;18.38;;;5.45;;
43540;SDS011;29549;40.386;-3.710;2022-10-19T13:05:32;15.85;;;5.57;;
43540;SDS011;29549;40.386;-3.710;2022-10-19T13:25:40;17.33;;;5.47;;
43540;SDS011;29549;40.386;-3.710;2022-10-19T13:35:42;18.25;;;5.15;;
43540;SDS011;29549;40.386;-3.710;2022-10-19T13:45:52;22.13;;;5.07;;
43540;SDS011;29549;40.386;-3.710;2022-10-19T14:06:26;29.77;;;16.85;;
43540;SDS011;29549;40.386;-3.710;2022-10-19T14:27:02;16.27;;;5.00;;
43540;SDS011;29549;40.386;-3.710;2022-10-19T14:37:14;22.13;;;4.63;;
43540;SDS011;29549;40.386;-3.710;2022-10-19T14:47:24;14.68;;;4.50;;
43540;SDS011;29549;40.386;-3.710;2022-10-19T15:07:38;15.85;;;4.50;;
43540;SDS011;29549;40.386;-3.710;2022-10-19T15:17:59;19.70;;;4.43;;
43540;SDS011;29549;40.386;-3.710;2022-10-19T15:28:17;17.70;;;3.90;;
43540;SDS011;29549;40.386;-3.710;2022-10-19T15:38:33;16.85;;;4.60;;
43540;SDS011;29549;40.386;-3.710;2022-10-19T15:58:51;22.73;;;4.37;;
43540;SDS011;29549;40.386;-3.710;2022-10-19T16:08:55;21.42;;;4.47;;
43540;SDS011;29549;40.386;-3.710;2022-10-19T16:18:59;18.75;;;3.83;;
43540;SDS011;29549;40.386;-3.710;2022-10-19T16:29:00;13.18;;;4.10;;
43540;SDS011;29549;40.386;-3.710;2022-10-19T16:39:02;10.93;;;3.47;;
43540;SDS011;29549;40.386;-3.710;2022-10-19T16:49:04;10.88;;;2.90;;
43540;SDS011;29549;40.386;-3.710;2022-10-19T16:59:06;16.40;;;3.90;;
43540;SDS011;29549;40.386;-3.710;2022-10-19T17:09:07;16.17;;;3.63;;
43540;SDS011;29549;40.386;-3.710;2022-10-19T17:19:10;15.00;;;6.32;;
43540;SDS011;29549;40.386;-3.710;2022-10-19T17:29:13;14.02;;;4.20;;
43540;SDS011;29549;40.386;-3.710;2022-10-19T17:39:19;21.47;;;3.23;;
43540;SDS011;29549;40.386;-3.710;2022-10-19T17:49:22;19.05;;;3.90;;
43540;SDS011;29549;40.386;-3.710;2022-10-19T17:59:23;18.73;;;5.90;;
43540;SDS011;29549;40.386;-3.710;2022-10-19T18:09:25;13.10;;;3.10;;
43540;SDS011;29549;40.386;-3.710;2022-10-19T18:19:27;16.38;;;4.93;;
43540;SDS011;29549;40.386;-3.710;2022-10-19T18:29:28;19.95;;;3.53;;
43540;SDS011;29549;40.386;-3.710;2022-10-19T18:39:30;10.73;;;3.13;;
43540;SDS011;29549;40.386;-3.710;2022-10-19T18:49:31;9.38;;;2.40;;
43540;SDS011;29549;40.386;-3.710;2022-10-19T18:59:33;12.40;;;3.10;;
43540;SDS011;29549;40.386;-3.710;2022-10-19T19:09:34;11.48;;;2.20;;
43540;SDS011;29549;40.386;-3.710;2022-10-19T19:19:37;9.50;;;2.60;;
43540;SDS011;29549;40.386;-3.710;2022-10-19T19:29:39;10.63;;;3.38;;
43540;SDS011;29549;40.386;-3.710;2022-10-19T19:39:40;7.30;;;2.90;;
43540;SDS011;29549;40.386;-3.710;2022-10-19T19:49:42;11.52;;;2.90;;
43540;SDS011;29549;40.386;-3.710;2022-10-19T19:59:43;9.05;;;2.75;;
43540;SDS011;29549;40.386;-3.710;2022-10-19T20:09:45;12.18;;;2.75;;
43540;SDS011;29549;40.386;-3.710;2022-10-19T20:19:46;10.40;;;3.50;;
43540;SDS011;29549;40.386;-3.710;2022-10-19T20:29:48;16.87;;;2.90;;
43540;SDS011;29549;40.386;-3.710;2022-10-19T20:39:52;14.93;;;3.05;;
43540;SDS011;29549;40.386;-3.710;2022-10-19T20:49:53;12.45;;;2.80;;
43540;SDS011;29549;40.386;-3.710;2022-10-19T20:59:55;9.13;;;1.90;;
43540;SDS011;29549;40.386;-3.710;2022-10-19T21:09:57;5.40;;;1.87;;
43540;SDS011;29549;40.386;-3.710;2022-10-19T21:19:59;7.20;;;1.90;;
43540;SDS011;29549;40.386;-3.710;2022-10-19T21:30:01;12.70;;;3.33;;
43540;SDS011;29549;40.386;-3.710;2022-10-19T21:40:03;10.18;;;2.88;;
43540;SDS011;29549;40.386;-3.710;2022-10-19T21:50:05;8.45;;;2.38;;
43540;SDS011;29549;40.386;-3.710;2022-10-19T22:00:07;8.57;;;2.57;;
43540;SDS011;29549;40.386;-3.710;2022-10-19T22:10:11;7.68;;;2.20;;
43540;SDS011;29549;40.386;-3.710;2022-10-19T22:20:13;9.38;;;2.42;;
43540;SDS011;29549;40.386;-3.710;2022-10-19T22:30:15;5.05;;;2.70;;
43540;SDS011;29549;40.386;-3.710;2022-10-19T22:40:17;7.90;;;2.35;;
43540;SDS011;29549;40.386;-3.710;2022-10-19T22:50:19;7.18;;;2.70;;
43540;SDS011;29549;40.386;-3.710;2022-10-19T23:00:20;9.55;;;2.30;;
43540;SDS011;29549;40.386;-3.710;2022-10-19T23:10:22;9.63;;;2.70;;
43540;SDS011;29549;40.386;-3.710;2022-10-19T23:20:23;10.93;;;3.10;;
43540;SDS011;29549;40.386;-3.710;2022-10-19T23:30:25;9.18;;;2.88;;
43540;SDS011;29549;40.386;-3.710;2022-10-19T23:40:27;11.88;;;3.20;;
43540;SDS011;29549;40.386;-3.710;2022-10-19T23:50:28;7.22;;;2.47;;
